createdAt,value
2023-04-21T00:01:55.340Z,12.83
2023-04-21T00:04:23.979Z,12.70
2023-04-21T00:06:53.135Z,16.40
2023-04-21T00:09:21.544Z,14.27
2023-04-21T00:11:49.821Z,12.93
2023-04-21T00:14:17.978Z,11.43
2023-04-21T00:16:52.370Z,14.70
2023-04-21T00:19:21.158Z,12.03
2023-04-21T00:21:49.499Z,12.63
2023-04-21T00:24:17.653Z,26.07
2023-04-21T00:26:45.811Z,15.27
2023-04-21T00:29:13.973Z,13.13
2023-04-21T00:31:42.169Z,13.53
2023-04-21T00:34:11.648Z,19.70
2023-04-21T00:36:39.783Z,15.17
2023-04-21T00:39:07.930Z,11.67
2023-04-21T00:41:39.825Z,13.53
2023-04-21T00:44:09.684Z,14.93
2023-04-21T00:46:38.962Z,12.57
2023-04-21T00:49:08.616Z,16.97
2023-04-21T00:51:38.562Z,17.37
2023-04-21T00:54:08.320Z,11.60
2023-04-21T00:56:37.217Z,13.77
2023-04-21T00:59:05.461Z,10.87
2023-04-21T01:01:36.400Z,13.80
2023-04-21T01:04:06.405Z,18.13
2023-04-21T01:06:35.377Z,14.33
2023-04-21T01:09:06.468Z,16.87
2023-04-21T01:11:34.627Z,16.40
2023-04-21T01:14:02.795Z,15.93
2023-04-21T01:16:32.650Z,14.97
2023-04-21T01:19:01.797Z,12.93
2023-04-21T01:21:32.002Z,17.90
2023-04-21T01:24:04.173Z,13.37
2023-04-21T01:26:32.294Z,12.67
2023-04-21T01:29:00.455Z,10.47
2023-04-21T01:31:28.621Z,11.70
2023-04-21T01:33:56.897Z,12.47
2023-04-21T01:36:25.078Z,12.53
2023-04-21T01:38:53.840Z,18.10
2023-04-21T01:41:25.308Z,15.63
2023-04-21T01:43:55.826Z,15.60
2023-04-21T01:46:25.921Z,16.67
2023-04-21T01:48:54.061Z,12.93
2023-04-21T01:51:22.211Z,11.20
2023-04-21T01:53:50.360Z,11.17
2023-04-21T01:56:18.957Z,14.53
2023-04-21T01:58:48.493Z,13.40
2023-04-21T02:01:16.837Z,11.00
2023-04-21T02:03:46.274Z,13.67
2023-04-21T02:06:17.782Z,11.07
2023-04-21T02:08:45.904Z,14.50
2023-04-21T02:11:14.069Z,14.33
2023-04-21T02:13:42.271Z,19.33
2023-04-21T02:16:14.168Z,12.77
2023-04-21T02:18:44.597Z,11.83
2023-04-21T02:21:13.203Z,14.80
2023-04-21T02:23:41.562Z,13.97
2023-04-21T02:26:10.280Z,11.73
2023-04-21T02:28:38.492Z,10.97
2023-04-21T02:31:06.785Z,13.03
2023-04-21T02:33:37.362Z,20.80
2023-04-21T02:36:06.397Z,16.00
2023-04-21T02:38:34.862Z,14.70
2023-04-21T02:41:03.134Z,11.80
2023-04-21T02:43:31.359Z,13.83
2023-04-21T02:45:59.571Z,16.57
2023-04-21T02:48:28.410Z,12.77
2023-04-21T02:50:57.866Z,15.17
2023-04-21T02:53:26.074Z,17.40
2023-04-21T02:55:54.627Z,14.50
2023-04-21T02:58:23.434Z,17.30
2023-04-21T03:00:51.778Z,12.70
2023-04-21T03:03:20.151Z,15.10
2023-04-21T03:05:48.702Z,19.17
2023-04-21T03:08:18.225Z,14.67
2023-04-21T03:10:46.350Z,16.97
2023-04-21T03:13:15.316Z,16.40
2023-04-21T03:15:43.563Z,17.00
2023-04-21T03:18:11.831Z,14.03
2023-04-21T03:20:40.000Z,17.40
2023-04-21T03:23:08.388Z,14.73
2023-04-21T03:25:39.347Z,14.63
2023-04-21T03:28:07.529Z,17.30
2023-04-21T03:30:35.794Z,14.20
2023-04-21T03:33:04.831Z,28.10
2023-04-21T03:35:35.255Z,14.57
2023-04-21T03:38:04.131Z,15.10
2023-04-21T03:40:32.505Z,17.30
2023-04-21T03:43:02.163Z,14.80
2023-04-21T03:45:30.404Z,15.23
2023-04-21T03:48:00.750Z,17.27
2023-04-21T03:50:29.106Z,15.67
2023-04-21T03:52:57.370Z,13.23
2023-04-21T03:55:25.542Z,15.77
2023-04-21T03:57:53.700Z,16.83
2023-04-21T04:00:23.319Z,15.50
2023-04-21T04:02:51.770Z,16.27
2023-04-21T04:05:20.048Z,16.70
2023-04-21T04:07:48.188Z,13.33
2023-04-21T04:10:16.451Z,15.00
2023-04-21T04:12:44.593Z,16.73
2023-04-21T04:15:12.853Z,13.63
2023-04-21T04:17:42.423Z,13.27
2023-04-21T04:20:10.704Z,15.27
2023-04-21T04:22:39.033Z,16.73
2023-04-21T04:25:07.375Z,14.43
2023-04-21T04:27:35.554Z,18.17
2023-04-21T04:30:04.046Z,14.93
2023-04-21T04:32:33.518Z,14.53
2023-04-21T04:35:02.992Z,14.00
2023-04-21T04:37:31.852Z,17.50
2023-04-21T04:40:00.178Z,14.67
2023-04-21T04:42:28.988Z,16.07
2023-04-21T04:44:57.418Z,18.30
2023-04-21T04:47:25.771Z,17.27
2023-04-21T04:49:53.904Z,15.17
2023-04-21T04:52:23.375Z,13.63
2023-04-21T04:54:51.529Z,12.97
2023-04-21T04:57:19.690Z,13.63
2023-04-21T04:59:47.834Z,13.60
2023-04-21T05:02:16.315Z,14.03
2023-04-21T05:04:45.000Z,13.23
2023-04-21T05:07:13.270Z,13.13
2023-04-21T05:09:42.758Z,15.47
2023-04-21T05:12:11.276Z,15.20
2023-04-21T05:14:39.432Z,16.10
2023-04-21T05:17:07.622Z,13.53
2023-04-21T05:19:36.598Z,13.73
2023-04-21T05:22:06.509Z,13.73
2023-04-21T05:24:34.967Z,14.20
2023-04-21T05:27:04.584Z,14.40
2023-04-21T05:29:34.235Z,13.60
2023-04-21T05:32:02.638Z,15.03
2023-04-21T05:34:30.804Z,17.90
2023-04-21T05:36:59.584Z,14.87
2023-04-21T05:39:28.724Z,15.53
2023-04-21T05:41:57.131Z,13.70
2023-04-21T05:44:26.591Z,14.07
2023-04-21T05:46:54.700Z,14.33
2023-04-21T05:49:22.937Z,12.40
2023-04-21T05:51:51.084Z,13.17
2023-04-21T05:54:19.689Z,12.23
2023-04-21T05:56:48.472Z,12.60
2023-04-21T05:59:16.778Z,16.67
2023-04-21T06:01:46.636Z,17.97
2023-04-21T06:04:14.966Z,12.03
2023-04-21T06:06:44.407Z,13.60
2023-04-21T06:09:15.636Z,15.70
2023-04-21T06:11:43.916Z,12.17
2023-04-21T06:14:12.138Z,15.90
2023-04-21T06:16:40.409Z,15.13
2023-04-21T06:19:09.946Z,15.93
2023-04-21T06:21:38.083Z,13.60
2023-04-21T06:24:06.748Z,12.67
2023-04-21T06:26:34.877Z,11.87
2023-04-21T06:29:03.018Z,13.63
2023-04-21T06:31:31.176Z,13.43
2023-04-21T06:33:59.333Z,12.90
2023-04-21T06:36:28.812Z,12.13
2023-04-21T06:38:57.225Z,17.47
2023-04-21T06:41:25.573Z,18.57
2023-04-21T06:43:53.832Z,15.97
2023-04-21T06:46:21.970Z,13.73
2023-04-21T06:48:50.170Z,16.07
2023-04-21T06:51:18.318Z,12.97
2023-04-21T06:53:47.762Z,11.80
2023-04-21T06:56:15.899Z,14.50
2023-04-21T06:58:44.018Z,12.47
2023-04-21T07:01:12.210Z,18.77
2023-04-21T07:03:41.141Z,13.23
2023-04-21T07:06:09.467Z,14.33
2023-04-21T07:08:37.958Z,12.37
2023-04-21T07:11:07.518Z,12.83
2023-04-21T07:13:35.981Z,13.17
2023-04-21T07:16:04.352Z,13.33
2023-04-21T07:18:32.583Z,13.23
2023-04-21T07:21:00.775Z,13.03
2023-04-21T07:23:28.930Z,12.37
2023-04-21T07:25:59.592Z,11.53
2023-04-21T07:28:29.385Z,13.40
2023-04-21T07:30:57.749Z,14.07
2023-04-21T07:33:25.937Z,16.93
2023-04-21T07:35:54.071Z,13.00
2023-04-21T07:38:22.226Z,12.63
2023-04-21T07:40:50.572Z,12.77
2023-04-21T07:43:19.600Z,12.77
2023-04-21T07:45:49.319Z,13.60
2023-04-21T07:48:17.589Z,13.20
2023-04-21T07:50:45.840Z,13.83
2023-04-21T07:53:13.985Z,12.77
2023-04-21T07:55:42.136Z,12.10
2023-04-21T07:58:11.180Z,13.53
2023-04-21T08:00:39.353Z,12.20
2023-04-21T08:03:09.025Z,12.27
2023-04-21T08:05:40.921Z,12.03
2023-04-21T08:08:09.550Z,11.97
2023-04-21T08:10:38.151Z,12.43
2023-04-21T08:13:06.576Z,13.53
2023-04-21T08:15:35.664Z,12.13
2023-04-21T08:18:03.968Z,13.33
2023-04-21T08:20:33.494Z,15.93
2023-04-21T08:23:01.739Z,10.30
2023-04-21T08:25:29.955Z,12.23
2023-04-21T08:27:58.140Z,10.70
2023-04-21T08:30:30.029Z,11.27
2023-04-21T08:32:58.287Z,12.00
2023-04-21T08:35:26.694Z,13.80
2023-04-21T08:37:56.309Z,13.77
2023-04-21T08:40:33.181Z,11.97
2023-04-21T08:43:01.381Z,11.03
2023-04-21T08:45:29.666Z,12.13
2023-04-21T08:48:00.827Z,12.57
2023-04-21T08:50:30.472Z,13.90
2023-04-21T08:53:00.041Z,11.07
2023-04-21T08:55:30.554Z,11.47
2023-04-21T08:57:58.944Z,13.07
2023-04-21T09:00:27.055Z,11.53
2023-04-21T09:03:01.339Z,11.77
2023-04-21T09:05:31.920Z,14.17
2023-04-21T09:08:10.668Z,11.63
2023-04-21T09:10:46.530Z,11.77
2023-04-21T09:13:15.268Z,12.43
2023-04-21T09:15:45.561Z,11.63
2023-04-21T09:18:15.278Z,11.67
2023-04-21T09:20:44.452Z,11.40
2023-04-21T09:23:14.463Z,11.80
2023-04-21T09:25:44.658Z,11.63
2023-04-21T09:28:15.076Z,12.00
2023-04-21T09:30:44.090Z,13.67
2023-04-21T09:33:28.863Z,10.90
2023-04-21T09:36:02.927Z,11.00
2023-04-21T09:38:33.786Z,10.10
2023-04-21T09:41:01.932Z,11.83
2023-04-21T09:43:30.103Z,9.60
2023-04-21T09:46:01.333Z,12.27
2023-04-21T09:48:32.942Z,10.43
2023-04-21T09:51:27.225Z,10.60
2023-04-21T09:53:54.951Z,10.00
2023-04-21T09:56:26.259Z,9.50
2023-04-21T09:58:58.601Z,10.27
2023-04-21T10:01:28.411Z,11.27
2023-04-21T10:03:57.026Z,9.83
2023-04-21T10:06:25.355Z,11.60
2023-04-21T10:08:58.202Z,11.43
2023-04-21T10:11:26.420Z,9.00
2023-04-21T10:13:55.588Z,10.93
2023-04-21T10:16:23.693Z,10.60
2023-04-21T10:18:52.715Z,8.40
2023-04-21T10:21:24.177Z,9.67
2023-04-21T10:23:53.871Z,9.00
2023-04-21T10:26:25.492Z,10.50
2023-04-21T10:28:55.706Z,8.30
2023-04-21T10:31:28.224Z,9.03
2023-04-21T10:34:24.000Z,7.90
2023-04-21T10:37:17.416Z,8.87
2023-04-21T10:39:48.308Z,8.43
2023-04-21T10:42:23.082Z,9.00
2023-04-21T10:45:02.573Z,7.23
2023-04-21T10:47:37.048Z,8.53
2023-04-21T10:50:16.516Z,10.70
2023-04-21T10:52:46.384Z,9.50
2023-04-21T10:55:16.158Z,8.00
2023-04-21T10:57:46.505Z,6.93
2023-04-21T11:00:20.378Z,6.63
2023-04-21T11:02:56.523Z,6.37
2023-04-21T11:05:36.289Z,6.90
2023-04-21T11:08:09.637Z,7.13
2023-04-21T11:10:48.830Z,6.80
2023-04-21T11:13:18.822Z,7.60
2023-04-21T11:16:01.148Z,6.60
2023-04-21T11:18:38.366Z,6.83
2023-04-21T11:21:10.957Z,8.13
2023-04-21T11:23:43.012Z,8.60
2023-04-21T11:26:11.154Z,5.30
2023-04-21T11:28:41.449Z,6.10
2023-04-21T11:31:09.799Z,5.40
2023-04-21T11:33:39.043Z,5.83
2023-04-21T11:36:07.875Z,7.30
2023-04-21T11:38:40.855Z,6.00
2023-04-21T11:41:10.845Z,9.30
2023-04-21T11:43:40.890Z,5.00
2023-04-21T11:46:14.028Z,8.37
2023-04-21T11:48:42.408Z,6.50
2023-04-21T11:51:16.155Z,8.10
2023-04-21T11:53:44.417Z,4.83
2023-04-21T11:56:12.886Z,6.20
2023-04-21T11:58:42.446Z,5.93
2023-04-21T12:01:11.286Z,5.67
2023-04-21T12:03:40.257Z,7.00
2023-04-21T12:06:08.901Z,5.90
2023-04-21T12:08:37.090Z,6.60
2023-04-21T12:11:05.466Z,5.90
2023-04-21T12:13:33.979Z,4.90
2023-04-21T12:16:05.267Z,6.73
2023-04-21T12:18:36.125Z,6.10
2023-04-21T12:21:05.358Z,4.40
2023-04-21T12:23:33.887Z,6.07
2023-04-21T12:26:02.481Z,6.00
2023-04-21T12:28:31.214Z,9.00
2023-04-21T12:30:59.352Z,5.80
2023-04-21T12:33:28.902Z,5.30
2023-04-21T12:35:57.495Z,7.17
2023-04-21T12:38:26.127Z,5.43
2023-04-21T12:40:54.310Z,5.00
2023-04-21T12:43:22.492Z,5.80
2023-04-21T12:45:52.736Z,5.73
2023-04-21T12:48:21.221Z,4.27
2023-04-21T12:50:50.694Z,5.33
2023-04-21T12:53:18.974Z,5.20
2023-04-21T12:55:57.253Z,6.87
2023-04-21T12:58:32.526Z,9.70
2023-04-21T13:01:00.846Z,5.67
2023-04-21T13:03:29.269Z,7.27
2023-04-21T13:05:59.416Z,5.13
2023-04-21T13:08:27.638Z,5.93
2023-04-21T13:10:55.853Z,5.57
2023-04-21T13:13:23.977Z,7.60
2023-04-21T13:15:52.368Z,5.17
2023-04-21T13:18:20.578Z,5.27
2023-04-21T13:20:48.740Z,4.47
2023-04-21T13:23:18.247Z,9.20
2023-04-21T13:25:46.457Z,5.37
2023-04-21T13:28:14.886Z,7.63
2023-04-21T13:30:43.258Z,4.97
2023-04-21T13:33:12.022Z,6.40
2023-04-21T13:35:40.279Z,4.47
2023-04-21T13:38:08.426Z,9.40
2023-04-21T13:40:38.177Z,5.60
2023-04-21T13:43:06.777Z,5.43
2023-04-21T13:45:35.410Z,6.07
2023-04-21T13:48:03.792Z,4.33
2023-04-21T13:50:33.728Z,5.67
2023-04-21T13:53:01.877Z,6.03
2023-04-21T13:55:30.115Z,6.10
2023-04-21T13:58:01.450Z,7.53
2023-04-21T14:00:29.574Z,8.67
2023-04-21T14:02:57.987Z,5.43
2023-04-21T14:05:26.510Z,4.27
2023-04-21T14:07:54.796Z,5.30
2023-04-21T14:10:23.281Z,4.90
2023-04-21T14:12:51.476Z,8.50
2023-04-21T14:15:21.168Z,5.03
2023-04-21T14:17:49.782Z,4.60
2023-04-21T14:20:18.051Z,4.87
2023-04-21T14:22:46.352Z,5.67
2023-04-21T14:25:14.547Z,5.10
2023-04-21T14:27:42.797Z,6.87
2023-04-21T14:30:12.075Z,5.07
2023-04-21T14:32:45.239Z,3.93
2023-04-21T14:35:14.117Z,4.40
2023-04-21T14:37:42.565Z,5.57
2023-04-21T14:40:11.637Z,4.67
2023-04-21T14:42:41.503Z,4.43
2023-04-21T14:45:10.925Z,3.93
2023-04-21T14:47:40.712Z,5.00
2023-04-21T14:50:10.039Z,4.23
2023-04-21T14:52:38.569Z,5.23
2023-04-21T14:55:07.645Z,4.20
2023-04-21T14:57:35.849Z,4.17
2023-04-21T15:00:05.946Z,4.93
2023-04-21T15:02:34.461Z,3.90
2023-04-21T15:05:04.633Z,4.20
2023-04-21T15:07:32.921Z,3.67
2023-04-21T15:10:01.263Z,4.37
2023-04-21T15:12:29.589Z,5.30
2023-04-21T15:14:57.762Z,4.33
2023-04-21T15:17:25.983Z,5.60
2023-04-21T15:19:54.514Z,3.67
2023-04-21T15:22:24.039Z,5.90
2023-04-21T15:24:54.322Z,4.00
2023-04-21T15:27:23.141Z,3.90
2023-04-21T15:29:51.427Z,6.00
2023-04-21T15:32:19.677Z,4.67
2023-04-21T15:34:49.037Z,4.00
2023-04-21T15:37:19.136Z,5.23
2023-04-21T15:39:48.774Z,4.80
2023-04-21T15:42:16.932Z,4.17
2023-04-21T15:44:46.994Z,3.63
2023-04-21T15:47:16.788Z,6.50
2023-04-21T15:49:44.946Z,4.20
2023-04-21T15:52:13.875Z,4.00
2023-04-21T15:54:42.049Z,3.37
2023-04-21T15:57:11.611Z,6.87
2023-04-21T15:59:40.173Z,5.80
2023-04-21T16:02:08.594Z,3.50
2023-04-21T16:04:37.897Z,9.20
2023-04-21T16:07:06.493Z,3.80
2023-04-21T16:09:34.666Z,3.70
2023-04-21T16:12:08.547Z,3.20
2023-04-21T16:14:51.281Z,5.50
2023-04-21T16:17:26.499Z,4.00
2023-04-21T16:19:55.034Z,3.57
2023-04-21T16:22:23.436Z,3.27
2023-04-21T16:24:53.141Z,3.80
2023-04-21T16:27:21.448Z,3.40
2023-04-21T16:29:51.580Z,4.27
2023-04-21T16:32:19.835Z,3.40
2023-04-21T16:34:48.079Z,4.10
2023-04-21T16:37:16.269Z,2.87
2023-04-21T16:39:44.390Z,3.87
2023-04-21T16:42:12.546Z,3.20
2023-04-21T16:44:40.923Z,4.27
2023-04-21T16:47:10.882Z,3.50
2023-04-21T16:49:39.100Z,4.33
2023-04-21T16:52:07.291Z,3.77
2023-04-21T16:54:35.610Z,8.73
2023-04-21T16:57:03.976Z,3.93
2023-04-21T16:59:33.188Z,2.83
2023-04-21T17:02:01.638Z,4.07
2023-04-21T17:04:31.184Z,3.70
2023-04-21T17:06:59.319Z,4.50
2023-04-21T17:09:27.398Z,2.57
2023-04-21T17:11:56.055Z,6.43
2023-04-21T17:14:24.235Z,3.57
2023-04-21T17:16:52.422Z,3.33
2023-04-21T17:19:20.593Z,3.70
2023-04-21T17:21:50.506Z,2.70
2023-04-21T17:24:18.597Z,3.20
2023-04-21T17:26:47.218Z,2.97
2023-04-21T17:29:15.334Z,3.03
2023-04-21T17:31:43.442Z,3.53
2023-04-21T17:34:11.617Z,5.53
2023-04-21T17:36:40.755Z,5.73
2023-04-21T17:39:10.346Z,3.07
2023-04-21T17:41:38.482Z,3.70
2023-04-21T17:44:06.760Z,6.00
2023-04-21T17:46:35.382Z,3.53
2023-04-21T17:49:03.572Z,3.00
2023-04-21T17:51:31.879Z,5.00
2023-04-21T17:53:59.995Z,4.23
2023-04-21T17:56:29.516Z,3.20
2023-04-21T17:58:57.714Z,3.13
2023-04-21T18:01:26.085Z,2.90
2023-04-21T18:06:24.185Z,3.93
2023-04-21T18:08:52.761Z,4.30
2023-04-21T18:11:21.612Z,4.10
2023-04-21T18:13:51.153Z,3.37
2023-04-21T18:16:19.487Z,3.03
2023-04-21T18:18:48.261Z,2.87
2023-04-21T18:21:16.610Z,4.27
2023-04-21T18:23:45.552Z,3.77
2023-04-21T18:26:13.702Z,3.63
2023-04-21T18:28:41.832Z,3.50
2023-04-21T18:31:11.516Z,6.17
2023-04-21T18:33:39.751Z,3.50
2023-04-21T18:36:08.892Z,5.00
2023-04-21T18:38:37.014Z,3.93
2023-04-21T18:41:05.172Z,3.83
2023-04-21T18:43:33.419Z,4.43
2023-04-21T18:46:01.542Z,3.60
2023-04-21T18:48:31.263Z,5.37
2023-04-21T18:50:59.390Z,4.03
2023-04-21T18:53:27.548Z,4.00
2023-04-21T18:55:55.653Z,2.73
2023-04-21T18:58:23.772Z,3.20
2023-04-21T19:00:51.956Z,5.17
2023-04-21T19:03:20.329Z,5.80
2023-04-21T19:05:49.922Z,6.67
2023-04-21T19:08:26.832Z,3.37
2023-04-21T19:11:02.318Z,5.57
2023-04-21T19:13:30.449Z,3.90
2023-04-21T19:15:58.766Z,5.03
2023-04-21T19:18:26.996Z,4.63
2023-04-21T19:20:56.756Z,4.37
2023-04-21T19:23:24.865Z,4.10
2023-04-21T19:25:55.240Z,4.30
2023-04-21T19:28:23.416Z,4.87
2023-04-21T19:30:51.580Z,5.63
2023-04-21T19:33:19.777Z,5.80
2023-04-21T19:35:47.980Z,4.23
2023-04-21T19:38:17.509Z,5.10
2023-04-21T19:40:45.643Z,5.10
2023-04-21T19:43:15.109Z,8.37
2023-04-21T19:45:43.491Z,5.27
2023-04-21T19:48:11.878Z,4.77
2023-04-21T19:50:40.369Z,5.03
2023-04-21T19:53:08.502Z,6.57
2023-04-21T19:55:37.913Z,5.57
2023-04-21T19:58:05.996Z,4.33
2023-04-21T20:00:34.136Z,5.17
2023-04-21T20:03:02.522Z,7.43
2023-04-21T20:05:30.792Z,4.63
2023-04-21T20:07:59.632Z,6.10
2023-04-21T20:10:28.142Z,5.80
2023-04-21T20:12:57.620Z,8.20
2023-04-21T20:15:26.950Z,4.70
2023-04-21T20:17:55.210Z,17.27
2023-04-21T20:20:23.479Z,6.67
2023-04-21T20:22:51.690Z,6.90
2023-04-21T20:25:19.877Z,6.90
2023-04-21T20:27:48.376Z,6.07
2023-04-21T20:30:17.838Z,8.50
2023-04-21T20:32:46.018Z,4.70
2023-04-21T20:35:16.988Z,5.60
2023-04-21T20:37:45.447Z,6.00
2023-04-21T20:40:14.794Z,6.20
2023-04-21T20:42:44.902Z,6.00
2023-04-21T20:45:13.191Z,5.60
2023-04-21T20:47:42.682Z,5.77
2023-04-21T20:50:11.353Z,5.57
2023-04-21T20:52:39.608Z,5.97
2023-04-21T20:55:08.164Z,5.63
2023-04-21T20:57:36.298Z,6.00
2023-04-21T21:00:05.940Z,6.07
2023-04-21T21:02:34.287Z,6.13
2023-04-21T21:05:04.488Z,5.57
2023-04-21T21:07:32.813Z,6.20
2023-04-21T21:10:00.977Z,5.97
2023-04-21T21:12:29.112Z,6.67
2023-04-21T21:14:58.292Z,6.10
2023-04-21T21:17:26.550Z,16.00
2023-04-21T21:19:54.758Z,10.20
2023-04-21T21:22:24.230Z,10.73
2023-04-21T21:24:52.726Z,8.17
2023-04-21T21:27:20.928Z,6.57
2023-04-21T21:29:49.464Z,6.00
2023-04-21T21:32:18.015Z,7.20
2023-04-21T21:34:46.266Z,6.23
2023-04-21T21:37:14.413Z,6.30
2023-04-21T21:39:43.930Z,5.80
2023-04-21T21:42:12.316Z,7.13
2023-04-21T21:44:40.434Z,6.70
2023-04-21T21:47:08.631Z,6.53
2023-04-21T21:49:38.342Z,9.17
2023-04-21T21:52:06.744Z,6.30
2023-04-21T21:54:34.941Z,5.97
2023-04-21T21:57:04.601Z,6.47
2023-04-21T21:59:32.957Z,6.60
2023-04-21T22:02:01.179Z,6.80
2023-04-21T22:04:29.389Z,7.13
2023-04-21T22:06:57.940Z,9.83
2023-04-21T22:09:26.113Z,6.27
2023-04-21T22:11:55.874Z,8.37
2023-04-21T22:14:25.652Z,6.93
2023-04-21T22:16:54.000Z,7.30
2023-04-21T22:19:22.938Z,9.17
2023-04-21T22:21:51.081Z,8.27
2023-04-21T22:24:19.475Z,8.93
2023-04-21T22:26:48.523Z,6.90
2023-04-21T22:29:16.676Z,9.17
2023-04-21T22:31:46.359Z,8.97
2023-04-21T22:34:15.098Z,6.60
2023-04-21T22:36:43.406Z,10.57
2023-04-21T22:39:11.673Z,6.77
2023-04-21T22:41:39.968Z,6.57
2023-04-21T22:44:08.533Z,6.47
2023-04-21T22:46:36.852Z,5.97
2023-04-21T22:49:06.665Z,6.23
2023-04-21T22:51:35.070Z,7.33
2023-04-21T22:54:03.304Z,6.90
2023-04-21T22:56:31.631Z,6.73
2023-04-21T22:59:00.379Z,8.77
2023-04-21T23:01:29.176Z,11.50
2023-04-21T23:03:57.563Z,9.50
2023-04-21T23:06:28.371Z,9.87
2023-04-21T23:08:56.517Z,10.00
2023-04-21T23:11:24.645Z,7.70
2023-04-21T23:13:52.892Z,9.10
2023-04-21T23:16:21.098Z,7.70
2023-04-21T23:18:49.383Z,7.73
2023-04-21T23:21:17.544Z,9.30
2023-04-21T23:23:46.988Z,8.73
2023-04-21T23:26:15.154Z,8.80
2023-04-21T23:28:43.312Z,9.07
2023-04-21T23:31:11.899Z,8.93
2023-04-21T23:33:40.372Z,9.60
2023-04-21T23:36:08.720Z,10.47
2023-04-21T23:38:36.889Z,7.23
2023-04-21T23:41:06.559Z,6.57
2023-04-21T23:43:37.133Z,7.47
2023-04-21T23:46:05.584Z,8.43
2023-04-21T23:48:34.808Z,7.33
2023-04-21T23:51:03.201Z,8.40
2023-04-21T23:53:31.327Z,7.03
2023-04-21T23:55:59.556Z,7.80
2023-04-21T23:58:29.522Z,6.77
